Time;durP1;ratioP1;P1;durP2;ratioP2;P2;SDS_P1;SDS_P2;PMS_P1;PMS_P2;Temp;Humidity;BMP_temperature;BMP_pressure;BME280_temperature;BME280_humidity;BME280_pressure;Samples;Min_cycle;Max_cycle;Signal;HPM_P1;HPM_P2
2021/05/19 00:00:50;;;;;;;27.20;25.20;;;9.20;99.90;;;;;;5061472;28;20826;-74
2021/05/19 00:03:17;;;;;;;29.40;27.03;;;9.20;99.90;;;;;;5059772;28;20490;-71
2021/05/19 00:05:43;;;;;;;28.70;26.30;;;9.20;99.90;;;;;;5056272;28;20494;-72
2021/05/19 00:08:10;;;;;;;28.33;26.17;;;9.20;99.90;;;;;;5061809;28;20461;-72
2021/05/19 00:10:37;;;;;;;26.97;24.80;;;9.20;99.90;;;;;;5059563;28;20818;-72
2021/05/19 00:13:03;;;;;;;28.37;25.83;;;9.30;99.90;;;;;;5059944;28;20543;-74
2021/05/19 00:15:30;;;;;;;27.17;25.07;;;9.40;99.90;;;;;;5061380;28;20512;-71
2021/05/19 00:18:01;;;;;;;28.83;26.20;;;9.40;99.90;;;;;;5062886;28;20463;-72
2021/05/19 00:20:28;;;;;;;29.17;26.80;;;9.40;99.90;;;;;;5051922;28;20463;-73
2021/05/19 00:22:55;;;;;;;27.60;25.10;;;9.50;99.90;;;;;;5055443;28;20563;-74
2021/05/19 00:25:21;;;;;;;27.97;25.67;;;9.60;99.90;;;;;;5059629;28;20840;-72
2021/05/19 00:27:47;;;;;;;28.00;25.70;;;9.70;99.90;;;;;;5061095;28;20455;-73
2021/05/19 00:30:18;;;;;;;29.50;26.40;;;9.70;99.90;;;;;;5056691;28;20576;-72
2021/05/19 00:32:44;;;;;;;28.60;26.00;;;9.70;99.90;;;;;;5063548;28;20468;-74
2021/05/19 00:35:11;;;;;;;27.47;25.20;;;9.60;99.90;;;;;;5055432;28;20472;-73
2021/05/19 00:37:38;;;;;;;29.50;26.77;;;9.60;99.90;;;;;;5053966;28;20471;-72
2021/05/19 00:40:06;;;;;;;28.03;25.83;;;9.60;99.90;;;;;;5058488;28;20473;-72
2021/05/19 00:42:32;;;;;;;28.20;25.53;;;9.60;99.90;;;;;;5062638;28;20494;-72
2021/05/19 00:45:03;;;;;;;28.00;25.50;;;9.50;99.90;;;;;;5063552;28;20453;-73
2021/05/19 00:47:31;;;;;;;26.20;24.00;;;9.50;99.90;;;;;;5059697;28;20466;-72
2021/05/19 00:49:58;;;;;;;26.40;23.90;;;9.60;99.90;;;;;;5053821;28;20487;-73
2021/05/19 00:52:24;;;;;;;25.73;23.60;;;9.60;99.90;;;;;;5060936;28;20821;-72
2021/05/19 00:54:52;;;;;;;26.77;24.47;;;9.70;99.90;;;;;;5056055;28;20474;-72
2021/05/19 00:57:19;;;;;;;27.07;24.77;;;9.60;99.90;;;;;;5057374;28;20462;-72
2021/05/19 00:59:47;;;;;;;26.70;24.43;;;9.70;99.90;;;;;;5063113;28;20459;-72
2021/05/19 01:02:13;;;;;;;27.47;24.90;;;9.70;99.90;;;;;;5059519;28;20469;-74
2021/05/19 01:04:40;;;;;;;25.97;23.97;;;9.70;99.90;;;;;;5053393;28;20467;-72
2021/05/19 01:07:14;;;;;;;26.97;24.73;;;9.70;99.90;;;;;;5057920;28;20509;-72
2021/05/19 01:09:40;;;;;;;25.80;23.80;;;9.50;99.90;;;;;;5057529;28;20999;-73
2021/05/19 01:12:11;;;;;;;25.80;23.80;;;9.40;99.90;;;;;;5057623;28;20557;-73
2021/05/19 01:14:38;;;;;;;25.23;23.33;;;9.40;99.90;;;;;;5064067;28;20196;-73
2021/05/19 01:17:05;;;;;;;25.73;23.53;;;9.40;99.90;;;;;;5060371;28;20470;-72
2021/05/19 01:19:35;;;;;;;25.70;23.60;;;9.30;99.90;;;;;;5056835;28;20469;-73
2021/05/19 01:22:10;;;;;;;25.40;23.47;;;9.30;99.90;;;;;;5058188;28;20463;-72
2021/05/19 01:24:37;;;;;;;26.23;24.23;;;9.30;99.90;;;;;;5060508;28;20458;-73
2021/05/19 01:27:05;;;;;;;25.90;23.87;;;9.30;99.90;;;;;;5054773;28;20473;-72
2021/05/19 01:29:31;;;;;;;26.00;23.87;;;9.20;99.90;;;;;;5051288;28;21529;-72
2021/05/19 01:31:57;;;;;;;25.90;23.90;;;9.20;99.90;;;;;;5053683;28;20837;-72
2021/05/19 01:34:23;;;;;;;26.07;23.93;;;9.20;99.90;;;;;;5059106;28;20493;-72
2021/05/19 01:36:50;;;;;;;27.10;24.90;;;9.20;99.90;;;;;;5053129;28;20470;-71
2021/05/19 01:39:17;;;;;;;27.30;25.10;;;9.20;99.90;;;;;;5059619;28;20464;-72
2021/05/19 01:41:46;;;;;;;27.40;25.00;;;9.10;99.90;;;;;;5062625;28;20487;-72
2021/05/19 01:44:14;;;;;;;28.30;26.00;;;9.10;99.90;;;;;;5058050;28;20958;-72
2021/05/19 01:46:41;;;;;;;26.33;23.83;;;9.00;99.90;;;;;;5057463;28;20535;-72
2021/05/19 01:49:08;;;;;;;27.00;24.97;;;8.80;99.90;;;;;;5054187;28;20488;-72
2021/05/19 01:51:37;;;;;;;25.77;23.90;;;8.70;99.90;;;;;;5058678;28;20792;-72
2021/05/19 01:54:05;;;;;;;26.93;24.83;;;8.50;99.90;;;;;;5060552;28;20693;-72
2021/05/19 01:56:35;;;;;;;27.80;25.50;;;8.50;99.90;;;;;;5060025;28;21107;-73
2021/05/19 01:59:02;;;;;;;27.13;24.90;;;8.40;99.90;;;;;;5059949;28;20517;-72
2021/05/19 02:01:29;;;;;;;27.73;25.60;;;8.30;99.90;;;;;;5057127;28;21019;-73
2021/05/19 02:04:08;;;;;;;28.13;25.40;;;8.20;99.90;;;;;;5056305;28;21020;-73
2021/05/19 02:06:45;;;;;;;29.07;26.63;;;8.10;99.90;;;;;;5058465;28;20525;-74
2021/05/19 02:09:12;;;;;;;26.90;24.80;;;8.10;99.90;;;;;;5059876;28;20508;-73
2021/05/19 02:11:39;;;;;;;29.47;26.80;;;8.10;99.90;;;;;;5063667;28;20472;-72
2021/05/19 02:14:06;;;;;;;28.97;26.37;;;8.10;99.90;;;;;;5063435;28;20475;-74
2021/05/19 02:16:33;;;;;;;31.67;28.70;;;8.10;99.90;;;;;;5056497;28;20973;-73
2021/05/19 02:19:00;;;;;;;30.80;28.27;;;8.10;99.90;;;;;;5058802;28;20563;-73
2021/05/19 02:21:26;;;;;;;30.50;27.90;;;8.00;99.90;;;;;;5053565;28;20452;-72
2021/05/19 02:23:53;;;;;;;30.33;27.73;;;7.90;99.90;;;;;;5063167;28;20491;-72
2021/05/19 02:26:19;;;;;;;32.13;29.23;;;7.90;99.90;;;;;;5062663;28;20500;-71
2021/05/19 02:28:47;;;;;;;29.57;27.17;;;7.90;99.90;;;;;;5056965;28;20884;-71
2021/05/19 02:31:14;;;;;;;33.03;29.70;;;7.80;99.90;;;;;;5052830;28;20941;-74
2021/05/19 02:33:40;;;;;;;30.30;27.27;;;7.70;99.90;;;;;;5047840;28;20460;-73
2021/05/19 02:36:07;;;;;;;30.83;28.13;;;7.80;99.90;;;;;;5060731;28;20464;-72
2021/05/19 02:38:35;;;;;;;29.50;27.17;;;7.80;99.90;;;;;;5060602;28;20565;-71
2021/05/19 02:41:01;;;;;;;31.57;28.90;;;7.70;99.90;;;;;;5057639;28;20532;-72
2021/05/19 02:43:28;;;;;;;29.47;26.67;;;7.60;99.90;;;;;;5057569;28;20491;-72
2021/05/19 02:45:55;;;;;;;29.60;27.20;;;7.50;99.90;;;;;;5058396;28;20462;-73
2021/05/19 02:48:21;;;;;;;29.87;27.30;;;7.40;99.90;;;;;;5056394;28;20845;-73
2021/05/19 02:50:48;;;;;;;29.10;26.70;;;7.30;99.90;;;;;;5059591;28;21010;-71
2021/05/19 02:53:14;;;;;;;33.83;30.53;;;7.20;99.90;;;;;;5063328;28;20455;-73
2021/05/19 02:55:41;;;;;;;31.87;28.67;;;7.20;99.90;;;;;;5061962;28;20464;-72
2021/05/19 02:58:07;;;;;;;32.87;29.37;;;7.10;99.90;;;;;;5059664;28;20651;-73
2021/05/19 03:00:34;;;;;;;32.57;29.53;;;7.20;99.90;;;;;;5063215;28;20466;-73
2021/05/19 03:03:01;;;;;;;31.70;28.90;;;7.30;99.90;;;;;;5062163;28;20479;-71
2021/05/19 03:05:29;;;;;;;35.17;32.10;;;7.30;99.90;;;;;;5061052;28;20490;-72
2021/05/19 03:07:56;;;;;;;33.70;30.73;;;7.20;99.90;;;;;;5064273;28;20487;-71
2021/05/19 03:10:23;;;;;;;33.47;30.33;;;7.20;99.90;;;;;;5065340;28;20465;-73
2021/05/19 03:12:51;;;;;;;33.33;29.87;;;7.30;99.90;;;;;;5060132;28;20465;-74
2021/05/19 03:15:18;;;;;;;35.07;31.47;;;7.40;99.90;;;;;;5064023;28;20456;-71
2021/05/19 03:17:45;;;;;;;34.60;31.13;;;7.50;99.90;;;;;;5059841;28;20700;-72
2021/05/19 03:20:14;;;;;;;34.70;31.37;;;7.50;99.90;;;;;;5061951;28;20467;-71
2021/05/19 03:22:40;;;;;;;34.47;31.07;;;7.50;99.90;;;;;;5057810;28;20475;-73
2021/05/19 03:25:08;;;;;;;34.43;31.20;;;7.50;99.90;;;;;;5059408;28;21121;-73
2021/05/19 03:27:35;;;;;;;34.13;30.77;;;7.50;99.90;;;;;;5060314;28;20461;-73
2021/05/19 03:30:02;;;;;;;35.63;31.80;;;7.50;99.90;;;;;;5063308;28;20471;-72
2021/05/19 03:32:28;;;;;;;35.40;31.80;;;7.40;99.90;;;;;;5064517;28;20455;-71
2021/05/19 03:34:55;;;;;;;35.57;32.17;;;7.40;99.90;;;;;;5061009;28;20502;-73
2021/05/19 03:37:22;;;;;;;35.07;31.87;;;7.40;99.90;;;;;;5061693;28;20542;-72
2021/05/19 03:39:48;;;;;;;35.40;31.70;;;7.40;99.90;;;;;;5062024;28;20491;-71
2021/05/19 03:42:15;;;;;;;36.90;30.07;;;7.40;99.90;;;;;;5064733;28;20479;-71
2021/05/19 03:44:42;;;;;;;34.10;30.70;;;7.40;99.90;;;;;;5053140;28;20491;-72
2021/05/19 03:47:09;;;;;;;34.63;30.77;;;7.40;99.90;;;;;;5057508;28;20463;-74
2021/05/19 03:49:38;;;;;;;33.80;30.50;;;7.50;99.90;;;;;;5056041;28;20502;-72
2021/05/19 03:52:05;;;;;;;36.57;32.60;;;7.50;99.90;;;;;;5057372;28;21054;-72
2021/05/19 03:54:34;;;;;;;34.80;31.10;;;7.60;99.90;;;;;;5061383;28;20471;-71
2021/05/19 03:57:01;;;;;;;34.17;30.83;;;7.70;99.90;;;;;;5061640;28;20990;-72
2021/05/19 03:59:27;;;;;;;34.40;30.90;;;7.80;99.90;;;;;;5059219;28;20469;-71
2021/05/19 04:01:53;;;;;;;35.97;32.27;;;7.80;99.90;;;;;;5056455;28;20486;-72
2021/05/19 04:04:19;;;;;;;33.57;30.47;;;7.80;99.90;;;;;;5054266;28;20495;-72
2021/05/19 04:06:46;;;;;;;32.47;29.40;;;7.80;99.90;;;;;;5060543;28;20492;-71
2021/05/19 04:09:12;;;;;;;32.53;29.37;;;7.80;99.90;;;;;;5063193;28;20496;-71
2021/05/19 04:11:40;;;;;;;36.90;33.10;;;7.80;99.90;;;;;;5060475;28;20460;-72
2021/05/19 04:14:06;;;;;;;35.27;31.57;;;7.90;99.90;;;;;;5055859;28;20532;-71
2021/05/19 04:16:32;;;;;;;33.90;30.47;;;7.90;99.90;;;;;;5060447;28;20459;-72
2021/05/19 04:18:59;;;;;;;33.70;30.57;;;7.90;99.90;;;;;;5052779;28;20460;-71
2021/05/19 04:21:26;;;;;;;35.67;31.90;;;8.00;99.90;;;;;;5055940;28;20514;-72
2021/05/19 04:23:52;;;;;;;34.20;30.87;;;8.10;99.90;;;;;;5061964;28;20497;-72
2021/05/19 04:26:19;;;;;;;36.37;32.30;;;8.10;99.90;;;;;;5058387;28;20460;-73
2021/05/19 04:28:47;;;;;;;34.67;30.83;;;8.20;99.90;;;;;;5055485;28;20462;-72
2021/05/19 04:31:13;;;;;;;32.83;29.53;;;8.20;99.90;;;;;;5061893;28;20461;-71
2021/05/19 04:33:40;;;;;;;33.97;30.33;;;8.20;99.90;;;;;;5057702;28;20496;-73
2021/05/19 04:36:07;;;;;;;33.90;30.43;;;8.30;99.90;;;;;;5055390;28;20526;-74
2021/05/19 04:38:34;;;;;;;33.77;30.23;;;8.30;99.90;;;;;;5058678;28;20817;-71
2021/05/19 04:41:00;;;;;;;33.73;30.13;;;8.40;99.90;;;;;;5063871;28;20512;-72
2021/05/19 04:43:27;;;;;;;35.23;30.00;;;8.30;99.90;;;;;;5066322;28;20490;-73
2021/05/19 04:45:54;;;;;;;33.10;29.53;;;8.30;99.90;;;;;;5055591;28;20536;-74
2021/05/19 04:48:21;;;;;;;34.30;30.20;;;8.30;99.90;;;;;;5057307;28;20482;-74
2021/05/19 04:50:47;;;;;;;35.93;30.73;;;8.20;99.90;;;;;;5053571;28;20489;-71
2021/05/19 04:53:14;;;;;;;34.17;30.70;;;8.30;99.90;;;;;;5065937;28;20471;-73
2021/05/19 04:55:41;;;;;;;32.90;29.37;;;8.30;99.90;;;;;;5057160;28;20455;-73
2021/05/19 04:58:08;;;;;;;34.00;30.37;;;8.30;99.90;;;;;;5056416;28;20463;-72
2021/05/19 05:00:36;;;;;;;32.13;28.80;;;8.30;99.90;;;;;;5062161;28;20463;-72
2021/05/19 05:03:05;;;;;;;32.23;28.70;;;8.30;99.90;;;;;;5061301;28;20488;-74
2021/05/19 05:05:31;;;;;;;36.87;29.87;;;8.30;99.90;;;;;;5058209;28;20463;-75
2021/05/19 05:07:57;;;;;;;36.47;29.57;;;8.30;99.90;;;;;;5056821;28;20700;-75
2021/05/19 05:10:24;;;;;;;34.37;29.27;;;8.30;99.90;;;;;;5059078;28;20468;-73
2021/05/19 05:12:51;;;;;;;32.53;28.83;;;8.40;99.90;;;;;;5058101;28;20492;-74
2021/05/19 05:15:18;;;;;;;30.93;27.73;;;8.60;99.90;;;;;;5058454;28;20488;-75
2021/05/19 05:17:45;;;;;;;32.40;28.27;;;8.80;99.90;;;;;;5054612;28;20552;-73
2021/05/19 05:20:14;;;;;;;33.50;27.70;;;9.00;99.90;;;;;;5055031;28;20465;-72
2021/05/19 05:22:41;;;;;;;37.23;29.20;;;9.10;99.90;;;;;;5059566;28;20905;-73
2021/05/19 05:25:09;;;;;;;34.70;29.80;;;9.30;99.90;;;;;;5061634;28;20511;-72
2021/05/19 05:27:35;;;;;;;33.07;28.60;;;9.40;99.90;;;;;;5055289;28;20518;-72
2021/05/19 05:30:01;;;;;;;34.03;28.37;;;9.30;99.90;;;;;;5056613;28;20475;-73
2021/05/19 05:32:28;;;;;;;43.97;35.17;;;9.50;99.90;;;;;;5058428;28;20469;-71
2021/05/19 05:34:54;;;;;;;39.20;27.13;;;9.50;99.90;;;;;;5057478;28;20468;-73
2021/05/19 05:37:23;;;;;;;30.10;27.00;;;9.60;99.90;;;;;;5059107;28;20530;-73
2021/05/19 05:39:49;;;;;;;33.77;27.23;;;9.60;99.90;;;;;;5060568;28;20815;-73
2021/05/19 05:42:16;;;;;;;30.90;25.60;;;9.60;99.90;;;;;;5060567;28;20713;-73
2021/05/19 05:44:43;;;;;;;27.97;25.10;;;9.50;99.90;;;;;;5058708;28;20488;-72
2021/05/19 05:47:09;;;;;;;36.73;27.53;;;9.60;99.90;;;;;;5051384;28;20460;-73
2021/05/19 05:49:35;;;;;;;30.20;24.60;;;9.60;99.90;;;;;;5054570;28;21037;-72
2021/05/19 05:52:02;;;;;;;40.53;29.50;;;9.60;99.90;;;;;;5066618;28;20833;-72
2021/05/19 05:54:29;;;;;;;43.33;31.90;;;9.60;99.90;;;;;;5060962;28;21040;-72
2021/05/19 05:56:57;;;;;;;31.23;25.87;;;9.70;99.90;;;;;;5060537;28;20503;-73
2021/05/19 05:59:23;;;;;;;27.47;23.17;;;9.70;99.90;;;;;;5053738;28;20964;-71
2021/05/19 06:01:50;;;;;;;29.60;23.40;;;9.80;99.90;;;;;;5057897;28;20470;-73
2021/05/19 06:04:16;;;;;;;27.70;24.90;;;9.90;99.90;;;;;;5055984;28;20510;-75
2021/05/19 06:06:42;;;;;;;31.30;24.30;;;9.90;99.90;;;;;;5053444;28;20460;-72
2021/05/19 06:09:08;;;;;;;24.73;22.37;;;10.10;99.90;;;;;;5055769;28;20916;-73
2021/05/19 06:11:36;;;;;;;23.93;21.10;;;10.20;99.90;;;;;;5058461;28;20467;-72
2021/05/19 06:14:03;;;;;;;27.73;23.00;;;10.30;99.90;;;;;;5055238;28;20465;-72
2021/05/19 06:16:29;;;;;;;23.73;20.90;;;10.30;99.90;;;;;;5051089;28;20459;-73
2021/05/19 06:18:56;;;;;;;31.17;23.13;;;10.30;99.90;;;;;;5057567;28;20522;-72
2021/05/19 06:21:22;;;;;;;24.63;22.00;;;10.30;99.90;;;;;;5059827;28;20465;-73
2021/05/19 06:23:48;;;;;;;28.03;22.00;;;10.40;99.90;;;;;;5059484;28;20490;-73
2021/05/19 06:26:15;;;;;;;29.07;21.60;;;10.40;99.90;;;;;;5057302;28;20460;-72
2021/05/19 06:28:42;;;;;;;29.50;21.13;;;10.60;99.90;;;;;;5060808;28;20550;-72
2021/05/19 06:31:09;;;;;;;32.37;20.70;;;10.80;99.90;;;;;;5059564;28;21054;-74
2021/05/19 06:33:36;;;;;;;21.53;19.40;;;10.90;99.90;;;;;;5053372;28;20455;-73
2021/05/19 06:36:03;;;;;;;20.93;19.27;;;11.00;99.90;;;;;;5065505;28;20673;-73
2021/05/19 06:38:30;;;;;;;20.40;18.53;;;11.10;99.90;;;;;;5062897;28;20558;-73
2021/05/19 06:40:56;;;;;;;21.53;18.53;;;11.20;99.90;;;;;;5058027;28;20779;-73
2021/05/19 06:43:22;;;;;;;20.10;18.33;;;11.30;99.90;;;;;;5058756;28;20844;-72
2021/05/19 06:45:49;;;;;;;20.17;18.10;;;11.50;99.90;;;;;;5062192;28;20450;-72
2021/05/19 06:48:16;;;;;;;22.50;18.40;;;11.70;99.90;;;;;;5057149;28;20463;-74
2021/05/19 06:50:45;;;;;;;23.00;17.20;;;11.80;99.90;;;;;;5062639;28;21082;-74
2021/05/19 06:53:12;;;;;;;18.07;16.47;;;12.00;99.90;;;;;;5056009;28;20471;-72
2021/05/19 06:55:39;;;;;;;19.40;17.40;;;12.00;99.90;;;;;;5061902;28;20952;-72
2021/05/19 06:58:05;;;;;;;18.73;16.87;;;12.30;99.90;;;;;;5061471;28;20459;-72
2021/05/19 07:00:31;;;;;;;17.93;16.53;;;12.40;99.90;;;;;;5060074;28;20458;-74
2021/05/19 07:02:58;;;;;;;15.90;14.73;;;12.50;99.90;;;;;;5060072;28;20719;-74
2021/05/19 07:05:25;;;;;;;17.23;15.80;;;12.40;99.90;;;;;;5058658;28;20463;-73
2021/05/19 07:07:52;;;;;;;17.93;16.27;;;12.40;99.90;;;;;;5056872;28;20808;-72
2021/05/19 07:10:18;;;;;;;17.60;15.80;;;12.60;99.90;;;;;;5057813;28;20498;-74
2021/05/19 07:12:46;;;;;;;19.93;18.20;;;12.90;99.90;;;;;;5060833;28;20965;-72
2021/05/19 07:15:16;;;;;;;17.47;15.80;;;13.20;99.90;;;;;;5057866;28;20466;-74
2021/05/19 07:17:42;;;;;;;17.00;15.90;;;13.40;99.90;;;;;;5045316;28;20526;-74
2021/05/19 07:20:11;;;;;;;17.43;15.93;;;13.30;99.90;;;;;;5048672;28;20512;-73
2021/05/19 07:22:38;;;;;;;16.70;15.10;;;13.70;99.90;;;;;;5051190;28;21166;-73
2021/05/19 07:25:05;;;;;;;17.70;15.97;;;14.00;99.90;;;;;;5045801;28;21519;-73
2021/05/19 07:27:31;;;;;;;16.53;15.33;;;14.20;99.90;;;;;;5052767;28;20460;-72
2021/05/19 07:29:58;;;;;;;16.87;15.53;;;14.20;99.90;;;;;;5046468;28;20981;-71
2021/05/19 07:32:24;;;;;;;16.70;15.60;;;14.30;99.90;;;;;;5054769;28;20471;-71
2021/05/19 07:34:51;;;;;;;16.87;15.60;;;14.30;99.90;;;;;;5055083;28;20473;-74
2021/05/19 07:37:19;;;;;;;16.60;15.50;;;13.90;99.90;;;;;;5051124;28;20464;-72
2021/05/19 07:39:45;;;;;;;16.60;15.57;;;13.40;99.90;;;;;;5052982;28;20470;-75
2021/05/19 07:42:16;;;;;;;16.97;15.77;;;13.40;99.90;;;;;;5052524;28;20487;-73
2021/05/19 07:44:43;;;;;;;16.93;15.53;;;13.50;99.90;;;;;;5055041;28;20578;-73
2021/05/19 07:47:10;;;;;;;15.63;14.60;;;13.60;99.90;;;;;;5058137;28;20470;-74
2021/05/19 07:49:36;;;;;;;17.17;15.83;;;13.50;99.90;;;;;;5054289;28;20475;-73
2021/05/19 07:52:02;;;;;;;16.83;15.50;;;13.50;99.90;;;;;;5050683;28;20478;-73
2021/05/19 07:54:31;;;;;;;17.60;16.13;;;13.70;99.90;;;;;;5053171;28;20472;-73
2021/05/19 07:57:00;;;;;;;18.00;16.17;;;13.70;99.90;;;;;;5048969;28;20857;-74
2021/05/19 07:59:27;;;;;;;17.63;16.13;;;14.00;99.90;;;;;;5054753;28;20464;-72
2021/05/19 08:02:03;;;;;;;16.93;15.40;;;14.30;99.90;;;;;;5048138;28;20464;-73
2021/05/19 08:04:32;;;;;;;19.67;16.10;;;14.40;99.90;;;;;;5049948;28;20494;-75
2021/05/19 08:06:59;;;;;;;16.57;15.20;;;14.30;99.90;;;;;;5045839;28;20471;-74
2021/05/19 08:09:25;;;;;;;16.30;14.80;;;14.40;99.90;;;;;;5057882;28;20467;-74
2021/05/19 08:11:52;;;;;;;17.37;15.53;;;14.30;99.90;;;;;;5056675;28;20459;-74
2021/05/19 08:14:19;;;;;;;15.93;14.60;;;14.20;99.90;;;;;;5051145;28;21017;-72
2021/05/19 08:16:45;;;;;;;17.20;15.73;;;13.80;99.90;;;;;;5052206;28;20472;-74
2021/05/19 08:19:12;;;;;;;16.90;15.43;;;13.80;99.90;;;;;;5051977;28;20467;-73
2021/05/19 08:21:39;;;;;;;16.20;14.60;;;13.90;99.90;;;;;;5048596;28;20616;-73
2021/05/19 08:24:06;;;;;;;15.93;14.60;;;13.80;99.90;;;;;;5046981;28;20487;-72
2021/05/19 08:26:32;;;;;;;17.30;15.70;;;13.90;99.90;;;;;;5055280;28;20463;-75
2021/05/19 08:29:00;;;;;;;16.53;15.23;;;13.90;99.90;;;;;;5050105;28;20832;-75
2021/05/19 08:31:26;;;;;;;17.13;15.77;;;14.10;99.90;;;;;;5052531;28;20466;-74
2021/05/19 08:33:56;;;;;;;16.30;14.87;;;14.10;99.90;;;;;;5054029;28;20463;-75
2021/05/19 08:36:22;;;;;;;17.33;15.87;;;14.20;99.90;;;;;;5049389;28;20471;-74
2021/05/19 08:38:49;;;;;;;17.10;15.60;;;14.30;99.90;;;;;;5049986;28;20459;-75
2021/05/19 08:41:15;;;;;;;16.40;15.20;;;14.10;99.90;;;;;;5053614;28;20495;-73
2021/05/19 08:43:42;;;;;;;16.10;14.90;;;14.30;99.90;;;;;;5054729;28;21192;-75
2021/05/19 08:46:10;;;;;;;15.43;14.53;;;14.50;99.90;;;;;;5046661;28;20491;-72
2021/05/19 08:48:37;;;;;;;16.43;15.30;;;14.50;99.90;;;;;;5042482;28;20518;-74
2021/05/19 08:51:04;;;;;;;17.80;16.30;;;14.80;99.90;;;;;;5053813;28;20475;-75
2021/05/19 08:53:32;;;;;;;15.93;14.97;;;14.60;99.90;;;;;;5051216;28;20507;-74
2021/05/19 08:55:59;;;;;;;17.30;15.53;;;15.10;99.90;;;;;;5054647;28;20914;-74
2021/05/19 08:58:26;;;;;;;16.03;14.90;;;15.10;99.90;;;;;;5050761;28;20509;-74
2021/05/19 09:00:52;;;;;;;16.47;15.47;;;15.20;99.90;;;;;;5049712;28;20766;-74
2021/05/19 09:03:19;;;;;;;16.00;14.73;;;15.70;99.90;;;;;;5053211;28;20991;-74
2021/05/19 09:05:48;;;;;;;16.30;15.40;;;16.40;99.90;;;;;;5050395;28;20521;-74
2021/05/19 09:08:16;;;;;;;15.73;14.50;;;16.30;99.90;;;;;;5058536;28;20455;-73
2021/05/19 09:10:45;;;;;;;16.70;15.33;;;16.30;99.90;;;;;;5047487;28;20492;-73
2021/05/19 09:13:29;;;;;;;16.30;14.60;;;17.00;99.90;;;;;;5052501;28;20485;-74
2021/05/19 09:15:56;;;;;;;15.97;14.57;;;17.30;99.90;;;;;;5053521;28;20965;-74
2021/05/19 09:18:23;;;;;;;15.77;14.67;;;17.70;99.90;;;;;;5053185;28;20521;-73
2021/05/19 09:20:51;;;;;;;15.40;14.50;;;18.10;99.90;;;;;;5054719;28;20465;-74
2021/05/19 09:23:19;;;;;;;16.83;15.23;;;17.50;99.90;;;;;;5048323;28;20577;-76
2021/05/19 09:26:03;;;;;;;16.07;14.40;;;17.00;99.90;;;;;;5049390;28;20885;-73
2021/05/19 09:28:30;;;;;;;16.57;15.23;;;16.50;99.90;;;;;;5048821;28;20532;-73
2021/05/19 09:30:57;;;;;;;15.57;14.37;;;15.80;99.90;;;;;;5054519;28;20790;-73
2021/05/19 09:33:27;;;;;;;15.17;14.07;;;15.90;99.90;;;;;;5052477;28;20604;-73
2021/05/19 09:36:14;;;;;;;16.50;15.10;;;16.50;99.90;;;;;;5049574;28;20470;-73
2021/05/19 09:38:42;;;;;;;16.27;15.33;;;16.10;99.90;;;;;;5043309;28;20521;-73
2021/05/19 09:41:20;;;;;;;16.73;14.80;;;16.70;99.90;;;;;;5064519;28;20487;-74
2021/05/19 09:43:47;;;;;;;15.53;14.33;;;17.30;99.90;;;;;;5049681;28;20597;-73
2021/05/19 09:46:17;;;;;;;15.63;14.53;;;17.80;99.90;;;;;;5053968;28;20499;-73
2021/05/19 09:48:45;;;;;;;16.23;14.70;;;18.00;99.90;;;;;;5051999;28;20577;-72
2021/05/19 09:51:26;;;;;;;16.87;15.97;;;17.80;99.90;;;;;;5051778;28;20459;-73
2021/05/19 09:53:52;;;;;;;16.83;15.57;;;17.50;99.90;;;;;;5055712;28;20533;-73
2021/05/19 09:56:18;;;;;;;18.00;16.40;;;17.50;99.90;;;;;;5056973;28;20463;-72
2021/05/19 09:58:47;;;;;;;16.27;15.30;;;17.70;99.90;;;;;;5049750;28;20467;-72
2021/05/19 10:01:13;;;;;;;17.03;15.63;;;17.10;99.90;;;;;;5049828;28;20962;-73
2021/05/19 10:03:40;;;;;;;16.80;15.53;;;17.10;99.90;;;;;;5054876;28;20578;-72
2021/05/19 10:06:14;;;;;;;16.10;15.00;;;16.40;99.90;;;;;;5054079;28;20758;-72
2021/05/19 10:08:40;;;;;;;17.10;15.37;;;15.90;99.90;;;;;;5048597;28;20466;-72
2021/05/19 10:11:06;;;;;;;16.33;15.10;;;16.50;99.90;;;;;;5046558;28;20471;-72
2021/05/19 10:13:34;;;;;;;15.70;14.40;;;17.10;99.90;;;;;;5055328;28;20471;-71
2021/05/19 10:16:02;;;;;;;16.23;15.13;;;17.00;99.90;;;;;;5050847;28;20467;-72
2021/05/19 10:18:31;;;;;;;17.70;16.37;;;17.10;99.90;;;;;;5044870;28;20464;-72
2021/05/19 10:21:00;;;;;;;15.87;14.87;;;16.90;99.90;;;;;;5056099;28;20456;-72
2021/05/19 10:23:34;;;;;;;16.57;15.30;;;17.80;99.90;;;;;;5046616;28;20494;-72
2021/05/19 10:26:08;;;;;;;16.37;15.30;;;18.90;99.90;;;;;;5047966;28;20469;-72
2021/05/19 10:28:39;;;;;;;17.57;16.37;;;19.50;99.90;;;;;;5045469;28;20971;-72
2021/05/19 10:31:25;;;;;;;16.27;15.17;;;20.30;99.90;;;;;;5045849;28;20468;-72
2021/05/19 10:33:54;;;;;;;16.60;15.40;;;21.30;99.90;;;;;;5046869;28;21036;-72
2021/05/19 10:36:48;;;;;;;16.07;15.00;;;21.60;99.90;;;;;;5050402;28;20512;-73
2021/05/19 10:39:25;;;;;;;20.73;19.17;;;20.20;99.90;;;;;;5025487;28;20467;-73
2021/05/19 10:41:54;;;;;;;33.13;27.93;;;18.30;99.90;;;;;;5049909;28;21054;-73
2021/05/19 10:44:22;;;;;;;29.07;26.87;;;16.40;99.90;;;;;;5046287;28;20486;-76
2021/05/19 10:46:57;;;;;;;25.73;23.93;;;15.10;99.90;;;;;;5046408;28;20477;-80
2021/05/19 10:49:43;;;;;;;24.40;22.80;;;14.70;99.90;;;;;;5053508;28;20479;-75
2021/05/19 10:52:17;;;;;;;24.70;23.10;;;14.60;99.90;;;;;;5050692;28;20506;-75
2021/05/19 10:57:50;;;;;;;23.50;21.90;;;14.00;99.90;;;;;;5050372;28;20956;-75
2021/05/19 11:00:22;;;;;;;22.17;20.67;;;13.60;99.90;;;;;;5054977;28;20466;-74
2021/05/19 11:03:17;;;;;;;20.83;19.53;;;13.60;99.90;;;;;;5051610;28;21179;-78
2021/05/19 11:06:08;;;;;;;22.53;20.10;;;13.60;99.90;;;;;;5050805;28;20754;-75
2021/05/19 11:08:35;;;;;;;18.60;17.60;;;13.70;99.90;;;;;;5051369;28;20459;-77
2021/05/19 11:11:23;;;;;;;17.47;16.57;;;13.80;99.90;;;;;;5059335;28;20712;-76
2021/05/19 11:14:19;;;;;;;18.30;17.30;;;14.00;99.90;;;;;;5055564;28;20464;-76
2021/05/19 11:19:45;;;;;;;17.77;16.87;;;14.50;99.90;;;;;;5016946;28;20459;-76
2021/05/19 11:22:13;;;;;;;17.63;16.73;;;14.80;99.90;;;;;;5049482;28;20456;-75
2021/05/19 11:24:54;;;;;;;18.33;17.33;;;15.10;99.90;;;;;;5057433;28;20841;-75
2021/05/19 11:27:22;;;;;;;18.10;17.20;;;15.40;99.90;;;;;;5051148;28;20474;-73
2021/05/19 11:29:49;;;;;;;18.57;17.57;;;15.90;99.90;;;;;;5053554;28;20487;-73
2021/05/19 11:32:17;;;;;;;18.50;17.50;;;16.00;99.90;;;;;;5055633;28;20466;-74
2021/05/19 11:34:43;;;;;;;18.63;17.63;;;16.90;99.90;;;;;;5054514;28;20539;-73
2021/05/19 11:37:10;;;;;;;19.10;18.10;;;17.90;99.90;;;;;;5051156;28;20469;-75
2021/05/19 11:39:39;;;;;;;19.10;18.10;;;18.50;99.90;;;;;;5057787;28;20470;-74
2021/05/19 11:42:19;;;;;;;18.97;17.97;;;19.30;99.90;;;;;;5052139;28;20488;-74
2021/05/19 11:44:50;;;;;;;19.20;18.20;;;18.90;99.90;;;;;;5056260;28;20490;-73
2021/05/19 11:47:22;;;;;;;18.83;17.83;;;18.70;99.90;;;;;;5051190;28;20466;-73
2021/05/19 11:50:03;;;;;;;18.00;17.10;;;18.20;99.90;;;;;;5058008;28;20541;-76
2021/05/19 11:52:39;;;;;;;17.20;16.40;;;18.40;99.90;;;;;;5051190;28;20582;-73
2021/05/19 11:55:05;;;;;;;15.23;14.53;;;18.60;99.90;;;;;;5047426;28;20472;-74
2021/05/19 11:57:33;;;;;;;18.17;16.57;;;18.40;99.90;;;;;;5047150;28;20820;-74
2021/05/19 12:00:01;;;;;;;17.30;16.07;;;19.20;99.90;;;;;;5051583;28;20822;-75
2021/05/19 12:02:27;;;;;;;17.33;16.10;;;19.30;99.90;;;;;;5050565;28;20469;-74
2021/05/19 12:04:53;;;;;;;16.27;15.23;;;19.10;99.90;;;;;;5048907;28;20819;-76
2021/05/19 12:07:20;;;;;;;17.20;15.87;;;19.10;99.90;;;;;;5055712;28;20470;-74
2021/05/19 12:09:46;;;;;;;16.33;15.10;;;19.60;99.90;;;;;;5053996;28;20464;-74
2021/05/19 12:12:14;;;;;;;16.27;15.47;;;20.40;99.90;;;;;;5054305;28;20516;-74
2021/05/19 12:14:50;;;;;;;16.23;15.43;;;20.90;99.90;;;;;;5057150;28;20545;-76
2021/05/19 12:17:23;;;;;;;16.27;15.30;;;21.00;99.90;;;;;;5054919;28;20466;-75
2021/05/19 12:19:50;;;;;;;16.60;15.53;;;20.10;99.90;;;;;;5055538;28;20964;-74
2021/05/19 12:22:19;;;;;;;15.63;14.83;;;19.90;99.90;;;;;;5054633;28;20497;-74
2021/05/19 12:24:45;;;;;;;15.60;14.70;;;19.40;99.90;;;;;;5053851;28;20484;-76
2021/05/19 12:27:16;;;;;;;15.60;14.90;;;19.70;99.90;;;;;;5056571;28;20989;-74
2021/05/19 12:29:46;;;;;;;15.90;15.10;;;20.40;99.90;;;;;;5049950;28;20517;-75
2021/05/19 12:32:17;;;;;;;16.47;15.37;;;20.70;99.90;;;;;;5050085;28;20471;-76
2021/05/19 12:35:06;;;;;;;16.67;15.57;;;21.70;99.90;;;;;;5057381;28;20470;-75
2021/05/19 12:37:43;;;;;;;16.20;15.30;;;22.30;99.70;;;;;;5052026;28;20463;-75
2021/05/19 12:40:11;;;;;;;16.30;15.37;;;21.30;99.90;;;;;;5049674;28;20494;-75
2021/05/19 12:42:41;;;;;;;15.97;14.80;;;20.40;99.90;;;;;;5048911;28;20546;-74